In Rescue
 
Open Full Screen Window  High Contrast Mode
Wind Gusting 00 knots
07
October 25, 2021 2:12 PM CDT
Weather Information
Wind Direction
  110 °
Wind Speed
  07 kt (8 mph)
Wind Gust
  00 kt (0 mph)
Altimeter
30.11 in
Visibility
10 SM
Temperature
10° C
50° F
Dewpoint
-01° C
30° F
Humidity
47%
1hr Rain Fall
00.00 in.
24hr Rain Fall
00.00 in.
Sky Condition
Clear
VFR

METAR KOVL 251912Z AUTO 11007KT 10SM CLR 10/M01 A3011 RMK AO2

FAA Disclaimer: The data displayed is for advisory purposes only and is not to be used for flight planning or operations.